Broad Channel, New York
Current Conditions -  °F | °C
As of 7:51 PM on Wednesday 22 Oct 2014 (Local Time) from KJFK Reporting Station
Light Rain Light Rain  
Wind Chill: 53°   Ceiling: 2300
Heat Index: 53°   Visibility: 10mi
Dew Point: 49°   Wind: 23mph
Humidity: 86%   Direction: 350°N
Pressure: 29.76"   Gusts: 31mph
Location:  40.6184°N, 73.8256°W
Report Text: KJFK 222351Z 35020G27KT 10SM -RA FEW012 BKN023 OVC035 12/09 A2976 RMK AO2 PK WND 35027/2345 SLP077 P0001 60006 T01170094 10144 20117 58020
Loading
Personal Weather Stations






























Interactive Weather Map New forecast layout! Learn more

10-Day Weather Forecast

Advertisements
Track Severe Weather on mobile